createdAt,value
2022-08-11T00:00:04.713Z,26.10
2022-08-11T00:02:31.301Z,26.10
2022-08-11T00:04:57.884Z,26.10
2022-08-11T00:07:24.409Z,26.10
2022-08-11T00:09:50.941Z,26.10
2022-08-11T00:12:17.461Z,26.10
2022-08-11T00:14:43.991Z,26.00
2022-08-11T00:17:10.519Z,26.10
2022-08-11T00:20:12.648Z,26.00
2022-08-11T00:22:23.577Z,26.10
2022-08-11T00:24:54.984Z,26.00
2022-08-11T00:27:22.694Z,26.00
2022-08-11T00:29:51.774Z,26.00
2022-08-11T00:32:18.569Z,26.00
2022-08-11T00:34:45.104Z,26.00
2022-08-11T00:37:11.626Z,26.00
2022-08-11T00:39:41.189Z,26.00
2022-08-11T00:42:07.744Z,26.00
2022-08-11T00:44:34.267Z,26.00
2022-08-11T00:47:00.783Z,26.00
2022-08-11T00:49:27.309Z,26.00
2022-08-11T00:52:04.687Z,26.00
2022-08-11T00:54:33.179Z,26.00
2022-08-11T00:56:59.829Z,25.90
2022-08-11T00:59:26.519Z,26.00
2022-08-11T01:02:02.194Z,25.90
2022-08-11T01:04:28.705Z,25.90
2022-08-11T01:06:55.218Z,25.90
2022-08-11T01:09:22.785Z,25.90
2022-08-11T01:11:55.432Z,25.90
2022-08-11T01:14:33.918Z,25.90
2022-08-11T01:17:01.265Z,25.90
2022-08-11T01:19:27.789Z,25.90
2022-08-11T01:21:55.172Z,25.90
2022-08-11T01:24:22.824Z,25.90
2022-08-11T01:26:49.357Z,25.90
2022-08-11T01:29:15.876Z,25.90
2022-08-11T01:31:42.391Z,25.90
2022-08-11T01:34:08.896Z,25.90
2022-08-11T01:36:35.457Z,25.90
2022-08-11T01:39:01.995Z,25.90
2022-08-11T01:41:28.517Z,25.90
2022-08-11T01:43:55.032Z,25.80
2022-08-11T01:46:21.559Z,25.90
2022-08-11T01:48:48.080Z,25.90
2022-08-11T01:51:16.946Z,25.80
2022-08-11T01:53:43.858Z,25.80
2022-08-11T01:56:10.417Z,25.80
2022-08-11T01:58:43.659Z,25.90
2022-08-11T02:01:10.929Z,25.80
2022-08-11T02:03:37.446Z,25.80
2022-08-11T02:06:03.960Z,25.80
2022-08-11T02:08:33.419Z,25.80
2022-08-11T02:11:00.168Z,25.80
2022-08-11T02:13:33.424Z,25.90
2022-08-11T02:16:02.389Z,25.90
2022-08-11T02:18:28.906Z,25.90
2022-08-11T02:20:55.446Z,25.90
2022-08-11T02:24:04.055Z,25.80
2022-08-11T02:26:08.473Z,25.80
2022-08-11T02:28:38.866Z,25.80
2022-08-11T02:31:11.619Z,25.80
2022-08-11T02:33:58.084Z,25.80
2022-08-11T02:36:24.623Z,25.80
2022-08-11T02:38:51.141Z,25.70
2022-08-11T02:41:17.655Z,25.70
2022-08-11T02:43:51.149Z,25.70
2022-08-11T02:46:18.117Z,25.70
2022-08-11T02:48:45.177Z,25.70
2022-08-11T02:51:11.699Z,25.70
2022-08-11T02:53:38.219Z,25.70
2022-08-11T02:56:04.722Z,25.70
2022-08-11T02:58:31.256Z,25.70
2022-08-11T03:00:57.795Z,25.70
2022-08-11T03:03:24.331Z,25.70
2022-08-11T03:05:50.880Z,25.70
2022-08-11T03:08:20.120Z,25.70
2022-08-11T03:10:46.661Z,25.70
2022-08-11T03:13:14.202Z,25.70
2022-08-11T03:15:42.236Z,25.70
2022-08-11T03:18:11.150Z,25.70
2022-08-11T03:20:37.922Z,25.70
2022-08-11T03:23:04.659Z,25.70
2022-08-11T03:25:46.971Z,25.70
2022-08-11T03:28:13.494Z,25.70
2022-08-11T03:30:40.028Z,25.60
2022-08-11T03:33:06.571Z,25.70
2022-08-11T03:35:33.120Z,25.70
2022-08-11T03:37:59.641Z,25.70
2022-08-11T03:40:26.194Z,25.70
2022-08-11T03:42:52.718Z,25.70
2022-08-11T03:45:19.283Z,25.60
2022-08-11T03:47:55.392Z,25.60
2022-08-11T03:50:22.402Z,25.60
2022-08-11T03:52:48.909Z,25.70
2022-08-11T03:55:15.442Z,25.60
2022-08-11T03:57:41.980Z,25.60
2022-08-11T04:00:08.517Z,25.60
2022-08-11T04:02:35.057Z,25.60
2022-08-11T04:05:01.569Z,25.60
2022-08-11T04:07:28.094Z,25.60
2022-08-11T04:09:54.619Z,25.60
2022-08-11T04:12:35.789Z,25.60
2022-08-11T04:15:03.339Z,25.60
2022-08-11T04:17:29.884Z,25.60
2022-08-11T04:19:56.420Z,25.60
2022-08-11T04:22:22.956Z,25.50
2022-08-11T04:24:50.540Z,25.60
2022-08-11T04:27:17.286Z,25.60
2022-08-11T04:30:03.503Z,25.50
2022-08-11T04:32:30.732Z,25.60
2022-08-11T04:34:57.265Z,25.50
2022-08-11T04:37:23.778Z,25.50
2022-08-11T04:39:50.360Z,25.50
2022-08-11T04:42:16.951Z,25.50
2022-08-11T04:44:43.464Z,25.50
2022-08-11T04:47:09.995Z,25.50
2022-08-11T04:49:38.345Z,25.60
2022-08-11T04:52:04.871Z,25.60
2022-08-11T04:54:31.375Z,25.60
2022-08-11T04:56:57.911Z,25.70
2022-08-11T04:59:24.425Z,25.70
2022-08-11T05:01:50.978Z,25.70
2022-08-11T05:04:23.483Z,25.70
2022-08-11T05:06:50.015Z,25.70
2022-08-11T05:09:16.549Z,25.70
2022-08-11T05:11:43.100Z,25.70
2022-08-11T05:14:09.633Z,25.70
2022-08-11T05:16:36.152Z,25.70
2022-08-11T05:19:02.856Z,25.70
2022-08-11T05:21:29.417Z,25.70
2022-08-11T05:23:55.956Z,25.80
2022-08-11T05:26:46.486Z,25.70
2022-08-11T05:29:20.318Z,25.70
2022-08-11T05:31:47.437Z,25.70
2022-08-11T05:34:17.389Z,25.70
2022-08-11T05:36:43.906Z,25.70
2022-08-11T05:39:10.448Z,25.80
2022-08-11T05:41:36.998Z,25.70
2022-08-11T05:44:20.994Z,25.70
2022-08-11T05:46:48.748Z,25.70
2022-08-11T05:49:15.278Z,25.60
2022-08-11T05:51:54.847Z,25.60
2022-08-11T05:54:28.250Z,25.60
2022-08-11T05:56:55.554Z,25.60
2022-08-11T05:59:23.297Z,25.60
2022-08-11T06:01:49.907Z,25.60
2022-08-11T06:04:16.489Z,25.60
2022-08-11T06:06:45.688Z,25.60
2022-08-11T06:09:13.544Z,25.60
2022-08-11T06:11:44.117Z,25.60
2022-08-11T06:14:11.023Z,25.70
2022-08-11T06:16:41.392Z,25.70
2022-08-11T06:19:07.913Z,25.70
2022-08-11T06:21:34.419Z,25.70
2022-08-11T06:24:00.932Z,25.60
2022-08-11T06:26:27.477Z,25.70
2022-08-11T06:28:54.018Z,25.70
2022-08-11T06:31:20.535Z,25.70
2022-08-11T06:33:47.055Z,25.60
2022-08-11T06:36:13.580Z,25.70
2022-08-11T06:38:40.113Z,25.70
2022-08-11T06:41:06.649Z,25.70
2022-08-11T06:43:33.175Z,25.70
2022-08-11T06:45:59.716Z,25.70
2022-08-11T06:48:26.249Z,25.70
2022-08-11T06:50:52.799Z,25.70
2022-08-11T06:53:19.330Z,25.60
2022-08-11T06:55:57.187Z,25.70
2022-08-11T06:58:25.405Z,25.60
2022-08-11T07:00:51.941Z,25.70
2022-08-11T07:03:18.458Z,25.70
2022-08-11T07:05:45.010Z,25.70
2022-08-11T07:08:34.157Z,25.70
2022-08-11T07:10:58.040Z,25.60
2022-08-11T07:13:44.334Z,25.70
2022-08-11T07:16:14.069Z,25.70
2022-08-11T07:18:40.747Z,25.70
2022-08-11T07:22:01.887Z,25.70
2022-08-11T07:23:53.791Z,25.70
2022-08-11T07:26:20.342Z,25.80
2022-08-11T07:28:46.872Z,25.80
2022-08-11T07:31:13.386Z,25.70
2022-08-11T07:34:08.240Z,25.80
2022-08-11T07:36:28.566Z,25.80
2022-08-11T07:38:55.692Z,25.80
2022-08-11T07:41:22.223Z,25.80
2022-08-11T07:43:48.753Z,25.70
2022-08-11T07:46:15.286Z,25.80
2022-08-11T07:48:41.794Z,25.80
2022-08-11T07:51:08.330Z,25.80
2022-08-11T07:53:34.841Z,25.80
2022-08-11T07:56:23.336Z,25.80
2022-08-11T07:59:08.406Z,25.80
2022-08-11T08:01:35.702Z,25.90
2022-08-11T08:04:02.231Z,25.90
2022-08-11T08:06:36.014Z,25.90
2022-08-11T08:09:02.920Z,25.90
2022-08-11T08:11:29.458Z,25.90
2022-08-11T08:13:55.992Z,25.80
2022-08-11T08:16:22.535Z,25.90
2022-08-11T08:18:49.053Z,25.90
2022-08-11T08:21:15.621Z,25.90
2022-08-11T08:23:42.131Z,26.00
2022-08-11T08:26:16.667Z,25.90
2022-08-11T08:28:43.517Z,25.90
2022-08-11T08:31:10.051Z,25.90
2022-08-11T08:33:36.561Z,25.90
2022-08-11T08:36:03.084Z,25.90
2022-08-11T08:38:29.617Z,25.90
2022-08-11T08:40:56.741Z,25.90
2022-08-11T08:43:23.356Z,25.90
2022-08-11T08:45:49.863Z,25.90
2022-08-11T08:48:16.391Z,26.00
2022-08-11T08:50:47.483Z,26.00
2022-08-11T08:53:14.023Z,26.00
2022-08-11T08:55:45.336Z,26.00
2022-08-11T08:58:12.076Z,26.00
2022-08-11T09:00:38.591Z,26.00
2022-08-11T09:03:22.917Z,26.00
2022-08-11T09:05:51.614Z,26.00
2022-08-11T09:08:18.121Z,26.00
2022-08-11T09:10:44.649Z,26.00
2022-08-11T09:13:11.179Z,26.00
2022-08-11T09:15:37.693Z,26.00
2022-08-11T09:18:04.200Z,26.00
2022-08-11T09:20:30.722Z,26.10
2022-08-11T09:23:29.563Z,26.00
2022-08-11T09:25:43.843Z,26.00
2022-08-11T09:28:10.366Z,26.00
2022-08-11T09:30:36.933Z,26.00
2022-08-11T09:33:03.463Z,26.00
2022-08-11T09:35:29.999Z,26.00
2022-08-11T09:37:56.703Z,26.10
2022-08-11T09:40:23.312Z,26.10
2022-08-11T09:42:53.983Z,26.10
2022-08-11T09:45:20.521Z,26.10
2022-08-11T09:47:47.066Z,26.10
2022-08-11T09:50:13.603Z,26.10
2022-08-11T09:52:48.247Z,26.10
2022-08-11T09:55:26.661Z,26.10
2022-08-11T09:57:55.125Z,26.10
2022-08-11T10:00:21.772Z,26.10
2022-08-11T10:02:48.280Z,26.10
2022-08-11T10:05:14.808Z,26.10
2022-08-11T10:07:41.309Z,26.10
2022-08-11T10:10:07.835Z,26.20
2022-08-11T10:12:34.356Z,26.20
2022-08-11T10:15:00.883Z,26.20
2022-08-11T10:17:27.403Z,26.20
2022-08-11T10:20:05.222Z,26.20
2022-08-11T10:22:32.949Z,26.20
2022-08-11T10:24:59.670Z,26.20
2022-08-11T10:27:40.359Z,26.30
2022-08-11T10:30:12.724Z,26.20
2022-08-11T10:32:49.452Z,26.30
2022-08-11T10:35:24.775Z,26.30
2022-08-11T10:38:08.848Z,26.30
2022-08-11T10:40:36.125Z,26.30
2022-08-11T10:43:02.900Z,26.30
2022-08-11T10:45:29.589Z,26.30
2022-08-11T10:47:56.106Z,26.30
2022-08-11T10:50:22.638Z,26.30
2022-08-11T10:52:49.152Z,26.30
2022-08-11T10:55:15.706Z,26.30
2022-08-11T10:57:42.250Z,26.30
2022-08-11T11:00:28.773Z,26.40
2022-08-11T11:03:16.804Z,26.40
2022-08-11T11:06:12.555Z,26.40
2022-08-11T11:08:28.342Z,26.40
2022-08-11T11:10:54.878Z,26.40
2022-08-11T11:13:21.387Z,26.40
2022-08-11T11:15:47.900Z,26.40
2022-08-11T11:18:14.431Z,26.40
2022-08-11T11:20:46.579Z,26.40
2022-08-11T11:23:13.797Z,26.40
2022-08-11T11:25:40.362Z,26.40
2022-08-11T11:28:06.887Z,26.40
2022-08-11T11:30:33.450Z,26.50
2022-08-11T11:32:59.965Z,26.50
2022-08-11T11:35:26.530Z,26.50
2022-08-11T11:38:03.668Z,26.50
2022-08-11T11:40:32.292Z,26.50
2022-08-11T11:42:58.948Z,26.50
2022-08-11T11:45:25.485Z,26.50
2022-08-11T11:47:52.002Z,26.50
2022-08-11T11:50:20.399Z,26.50
2022-08-11T11:52:46.937Z,26.50
2022-08-11T11:55:13.538Z,26.50
2022-08-11T11:57:40.244Z,26.60
2022-08-11T12:00:06.885Z,26.50
2022-08-11T12:02:33.431Z,26.60
2022-08-11T12:04:59.945Z,26.60
2022-08-11T12:07:26.476Z,26.60
2022-08-11T12:09:53.015Z,26.60
2022-08-11T12:12:19.544Z,26.60
2022-08-11T12:14:46.058Z,26.60
2022-08-11T12:17:12.565Z,26.60
2022-08-11T12:19:39.098Z,26.60
2022-08-11T12:22:14.854Z,26.60
2022-08-11T12:24:41.412Z,26.60
2022-08-11T12:27:15.912Z,26.70
2022-08-11T12:29:44.124Z,26.70
2022-08-11T12:32:10.698Z,26.70
2022-08-11T12:34:37.217Z,26.70
2022-08-11T12:37:03.732Z,26.70
2022-08-11T12:40:16.528Z,26.70
2022-08-11T12:42:16.814Z,26.70
2022-08-11T12:44:43.345Z,26.70
2022-08-11T12:47:09.897Z,26.70
2022-08-11T12:49:36.415Z,26.70
2022-08-11T12:52:14.846Z,26.70
2022-08-11T12:54:42.005Z,26.80
2022-08-11T12:57:08.532Z,26.80
2022-08-11T12:59:35.642Z,26.80
2022-08-11T13:02:02.243Z,26.80
2022-08-11T13:04:28.758Z,26.80
2022-08-11T13:06:55.277Z,26.80
2022-08-11T13:09:21.790Z,26.80
2022-08-11T13:11:57.091Z,26.80
2022-08-11T13:14:23.965Z,26.80
2022-08-11T13:16:50.479Z,26.80
2022-08-11T13:19:16.991Z,26.80
2022-08-11T13:21:43.525Z,26.80
2022-08-11T13:24:10.046Z,26.90
2022-08-11T13:26:46.758Z,26.80
2022-08-11T13:29:16.125Z,26.80
2022-08-11T13:31:42.665Z,26.90
2022-08-11T13:34:09.182Z,26.90
2022-08-11T13:36:36.268Z,26.90
2022-08-11T13:39:02.779Z,26.90
2022-08-11T13:41:29.301Z,26.90
2022-08-11T13:43:55.815Z,26.90
2022-08-11T13:46:22.333Z,26.90
2022-08-11T13:48:48.863Z,26.90
2022-08-11T13:51:15.382Z,27.00
2022-08-11T13:53:41.902Z,26.90
2022-08-11T13:56:08.452Z,27.00
2022-08-11T13:58:40.058Z,27.00
2022-08-11T14:02:03.190Z,27.00
2022-08-11T14:04:30.237Z,27.00
2022-08-11T14:06:44.794Z,27.10
2022-08-11T14:09:11.320Z,27.00
2022-08-11T14:12:22.193Z,27.00
2022-08-11T14:14:24.338Z,27.00
2022-08-11T14:16:50.852Z,27.00
2022-08-11T14:19:17.384Z,27.00
2022-08-11T14:21:43.923Z,27.00
2022-08-11T14:24:10.432Z,27.00
2022-08-11T14:26:39.524Z,27.10
2022-08-11T14:29:06.093Z,27.10
2022-08-11T14:31:32.640Z,27.10
2022-08-11T14:34:02.105Z,27.10
2022-08-11T14:36:28.845Z,27.10
2022-08-11T14:38:55.361Z,27.20
2022-08-11T14:41:21.915Z,27.10
2022-08-11T14:44:12.856Z,27.20
2022-08-11T14:46:34.975Z,27.20
2022-08-11T14:49:01.496Z,27.20
2022-08-11T14:51:28.023Z,27.20
2022-08-11T14:53:58.867Z,27.20
2022-08-11T14:56:25.554Z,27.20
2022-08-11T14:58:52.087Z,27.20
2022-08-11T15:01:18.669Z,27.20
2022-08-11T15:04:34.594Z,27.20
2022-08-11T15:06:31.721Z,27.20
2022-08-11T15:08:58.239Z,27.20
2022-08-11T15:11:24.794Z,27.30
2022-08-11T15:13:51.317Z,27.30
2022-08-11T15:16:17.880Z,27.30
2022-08-11T15:18:44.428Z,27.30
2022-08-11T15:21:10.943Z,27.30
2022-08-11T15:23:41.993Z,27.40
2022-08-11T15:26:08.533Z,27.30
2022-08-11T15:28:35.049Z,27.30
2022-08-11T15:31:05.822Z,27.40
2022-08-11T15:33:32.333Z,27.40
2022-08-11T15:35:58.846Z,27.40
2022-08-11T15:38:25.380Z,27.30
2022-08-11T15:40:51.905Z,27.40
2022-08-11T15:43:19.649Z,27.40
2022-08-11T15:45:46.185Z,27.40
2022-08-11T15:48:12.703Z,27.40
2022-08-11T15:50:39.250Z,27.40
2022-08-11T15:53:05.769Z,27.40
2022-08-11T15:55:32.302Z,27.40
2022-08-11T15:57:58.832Z,27.40
2022-08-11T16:00:25.341Z,27.40
2022-08-11T16:02:52.988Z,27.40
2022-08-11T16:05:45.185Z,27.40
2022-08-11T16:08:06.001Z,27.40
2022-08-11T16:10:33.850Z,27.40
2022-08-11T16:13:00.467Z,27.40
2022-08-11T16:15:26.989Z,27.40
2022-08-11T16:17:53.519Z,27.40
2022-08-11T16:20:20.039Z,27.40
2022-08-11T16:23:01.301Z,27.40
2022-08-11T16:27:01.998Z,27.40
2022-08-11T16:28:14.739Z,27.40
2022-08-11T16:30:41.288Z,27.40
2022-08-11T16:33:48.047Z,27.40
2022-08-11T16:35:54.377Z,27.40
2022-08-11T16:38:20.892Z,27.50
2022-08-11T16:40:47.436Z,27.40
2022-08-11T16:43:13.959Z,27.40
2022-08-11T16:45:40.488Z,27.50
2022-08-11T16:48:35.755Z,27.50
2022-08-11T16:50:53.545Z,27.40
2022-08-11T16:53:20.052Z,27.40
2022-08-11T16:55:52.636Z,27.40
2022-08-11T16:58:19.598Z,27.50
2022-08-11T17:00:46.297Z,27.50
2022-08-11T17:03:12.818Z,27.50
2022-08-11T17:05:53.944Z,27.50
2022-08-11T17:08:24.278Z,27.50
2022-08-11T17:10:55.449Z,27.50
2022-08-11T17:13:24.244Z,27.50
2022-08-11T17:15:50.970Z,27.50
2022-08-11T17:18:17.594Z,27.50
2022-08-11T17:20:44.451Z,27.50
2022-08-11T17:23:13.389Z,27.50
2022-08-11T17:26:03.096Z,27.50
2022-08-11T17:28:26.590Z,27.50
2022-08-11T17:30:53.113Z,27.50
2022-08-11T17:33:19.626Z,27.50
2022-08-11T17:35:46.144Z,27.50
2022-08-11T17:38:12.681Z,27.50
2022-08-11T17:40:39.206Z,27.50
2022-08-11T17:43:05.757Z,27.50
2022-08-11T17:45:32.297Z,27.50
2022-08-11T17:47:58.819Z,27.50
2022-08-11T17:50:25.338Z,27.50
2022-08-11T17:52:51.859Z,27.50
2022-08-11T17:55:18.383Z,27.50
2022-08-11T17:58:04.893Z,27.40
2022-08-11T18:00:31.421Z,27.50
2022-08-11T18:02:58.067Z,27.50
2022-08-11T18:05:24.621Z,27.40
2022-08-11T18:07:51.140Z,27.40
2022-08-11T18:10:17.664Z,27.40
2022-08-11T18:12:48.151Z,27.50
2022-08-11T18:15:14.689Z,27.50
2022-08-11T18:17:41.461Z,27.50
2022-08-11T18:20:08.116Z,27.40
2022-08-11T18:22:34.646Z,27.40
2022-08-11T18:25:01.170Z,27.40
2022-08-11T18:27:27.701Z,27.40
2022-08-11T18:29:54.222Z,27.40
2022-08-11T18:32:27.131Z,27.40
2022-08-11T18:35:00.551Z,27.40
2022-08-11T18:37:29.328Z,27.40
2022-08-11T18:39:56.601Z,27.40
2022-08-11T18:42:29.749Z,27.40
2022-08-11T18:44:56.512Z,27.40
2022-08-11T18:47:25.833Z,27.40
2022-08-11T18:50:02.123Z,27.40
2022-08-11T18:52:30.680Z,27.40
2022-08-11T18:54:57.206Z,27.40
2022-08-11T18:57:23.730Z,27.40
2022-08-11T18:59:50.255Z,27.40
2022-08-11T19:02:16.786Z,27.40
2022-08-11T19:04:43.301Z,27.40
2022-08-11T19:07:09.819Z,27.40
2022-08-11T19:09:36.342Z,27.40
2022-08-11T19:12:02.890Z,27.40
2022-08-11T19:14:29.409Z,27.40
2022-08-11T19:16:55.959Z,27.40
2022-08-11T19:19:22.491Z,27.40
2022-08-11T19:21:49.022Z,27.30
2022-08-11T19:24:15.535Z,27.30
2022-08-11T19:26:42.065Z,27.30
2022-08-11T19:29:08.582Z,27.30
2022-08-11T19:31:35.111Z,27.30
2022-08-11T19:34:09.887Z,27.30
2022-08-11T19:36:37.361Z,27.30
2022-08-11T19:39:03.890Z,27.30
2022-08-11T19:41:57.254Z,27.30
2022-08-11T19:44:16.932Z,27.30
2022-08-11T19:46:43.450Z,27.30
2022-08-11T19:49:09.957Z,27.30
2022-08-11T19:51:36.531Z,27.30
2022-08-11T19:54:03.101Z,27.30
2022-08-11T19:56:29.663Z,27.30
2022-08-11T19:58:56.180Z,27.30
2022-08-11T20:01:22.753Z,27.30
2022-08-11T20:03:49.298Z,27.30
2022-08-11T20:06:15.823Z,27.20
2022-08-11T20:08:42.350Z,27.30
2022-08-11T20:11:08.883Z,27.20
2022-08-11T20:13:35.405Z,27.20
2022-08-11T20:16:01.951Z,27.20
2022-08-11T20:18:28.474Z,27.20
2022-08-11T20:20:55.003Z,27.20
2022-08-11T20:23:21.551Z,27.20
2022-08-11T20:25:48.219Z,27.20
2022-08-11T20:28:14.739Z,27.20
2022-08-11T20:30:41.269Z,27.20
2022-08-11T20:33:07.790Z,27.10
2022-08-11T20:35:34.345Z,27.20
2022-08-11T20:38:00.878Z,27.20
2022-08-11T20:40:27.776Z,27.20
2022-08-11T20:42:54.302Z,27.10
2022-08-11T20:45:23.410Z,27.20
2022-08-11T20:47:59.264Z,27.30
2022-08-11T20:50:26.729Z,27.20
2022-08-11T20:52:55.283Z,27.20
2022-08-11T20:55:26.117Z,27.10
2022-08-11T20:58:09.835Z,27.20
2022-08-11T21:00:44.232Z,27.10
2022-08-11T21:03:13.971Z,27.10
2022-08-11T21:06:10.092Z,27.10
2022-08-11T21:08:37.686Z,27.10
2022-08-11T21:13:51.258Z,27.10
2022-08-11T21:16:25.243Z,27.10
2022-08-11T21:18:52.362Z,27.10
2022-08-11T21:21:20.028Z,27.10
2022-08-11T21:23:46.570Z,27.10
2022-08-11T21:26:13.104Z,27.10
2022-08-11T21:28:39.634Z,27.10
2022-08-11T21:31:06.159Z,27.10
2022-08-11T21:33:32.706Z,27.00
2022-08-11T21:35:59.258Z,27.10
2022-08-11T21:38:25.777Z,27.10
2022-08-11T21:40:52.312Z,27.00
2022-08-11T21:43:18.839Z,27.10
2022-08-11T21:45:45.379Z,27.00
2022-08-11T21:48:11.882Z,27.10
2022-08-11T21:50:38.407Z,27.10
2022-08-11T21:53:04.934Z,27.00
2022-08-11T21:55:31.479Z,27.00
2022-08-11T21:57:58.000Z,27.00
2022-08-11T22:00:24.569Z,27.00
2022-08-11T22:02:53.216Z,27.00
2022-08-11T22:05:20.350Z,27.00
2022-08-11T22:07:46.954Z,27.00
2022-08-11T22:10:41.182Z,27.00
2022-08-11T22:13:00.063Z,27.00
2022-08-11T22:15:26.625Z,27.00
2022-08-11T22:17:57.463Z,27.00
2022-08-11T22:20:24.644Z,27.00
2022-08-11T22:22:54.448Z,27.00
2022-08-11T22:25:21.127Z,27.00
2022-08-11T22:27:47.643Z,27.00
2022-08-11T22:30:14.193Z,27.00
2022-08-11T22:32:40.929Z,27.00
2022-08-11T22:35:07.630Z,27.00
2022-08-11T22:37:34.145Z,27.00
2022-08-11T22:40:02.472Z,26.90
2022-08-11T22:42:43.018Z,26.90
2022-08-11T22:45:09.567Z,26.90
2022-08-11T22:47:40.436Z,26.90
2022-08-11T22:50:07.303Z,26.90
2022-08-11T22:52:33.979Z,26.90
2022-08-11T22:55:00.546Z,26.90
2022-08-11T22:57:27.091Z,26.90
2022-08-11T22:59:53.607Z,26.90
2022-08-11T23:02:20.128Z,26.90
2022-08-11T23:04:53.204Z,26.90
2022-08-11T23:07:50.093Z,26.90
2022-08-11T23:10:06.466Z,26.70
2022-08-11T23:12:32.997Z,26.80
2022-08-11T23:15:00.221Z,26.80
2022-08-11T23:17:26.809Z,26.80
2022-08-11T23:20:10.041Z,26.80
2022-08-11T23:22:50.101Z,26.80
2022-08-11T23:25:17.960Z,26.80
2022-08-11T23:27:44.624Z,26.80
2022-08-11T23:30:11.135Z,26.80
2022-08-11T23:32:37.652Z,26.70
2022-08-11T23:35:38.553Z,26.70
2022-08-11T23:37:50.700Z,26.70
2022-08-11T23:40:17.220Z,26.70
2022-08-11T23:42:46.694Z,26.80
2022-08-11T23:45:13.223Z,26.70
2022-08-11T23:47:50.301Z,26.70
2022-08-11T23:50:17.639Z,26.70
2022-08-11T23:52:44.186Z,26.80
2022-08-11T23:55:10.736Z,26.80
2022-08-11T23:57:37.264Z,26.80
